Terminal Aerodrome Forecast
Issued by NWS

Home | Current Version | Previous Version | Text Only | Print | Product List | Glossary On
Versions: 1 2 3 4 5 6 7 8 9 10 11 12 13 14 15
313
FTUS41 KCAR 231122 AAC
TAFBHB
TAF AMD
KBHB 231122Z 2311/2412 10011G18KT 6SM -FZRA OVC004
     FM231300 11012KT 3SM -RA OVC004
     FM231700 16013G23KT P6SM OVC003 WS020/19040KT
     FM240200 19018G31KT P6SM VCSH BKN003
     FM240400 21016G27KT P6SM SCT004=

USA.gov is the U.S. government's official web portal to all federal, state and local government web resources and services.